sensor_id;sensor_type;location;lat;lon;timestamp;P1;durP1;ratioP1;P2;durP2;ratioP2
72060;SDS011;59925;52.136;5.420;2022-08-19T00:01:55;5.33;;;3.67;;
72060;SDS011;59925;52.136;5.420;2022-08-19T00:04:25;5.25;;;3.15;;
72060;SDS011;59925;52.136;5.420;2022-08-19T00:06:55;4.90;;;3.15;;
72060;SDS011;59925;52.136;5.420;2022-08-19T00:09:22;4.45;;;3.25;;
72060;SDS011;59925;52.136;5.420;2022-08-19T00:11:50;5.80;;;3.72;;
72060;SDS011;59925;52.136;5.420;2022-08-19T00:14:18;5.00;;;3.00;;
72060;SDS011;59925;52.136;5.420;2022-08-19T00:16:46;5.00;;;3.63;;
72060;SDS011;59925;52.136;5.420;2022-08-19T00:19:14;3.90;;;3.20;;
72060;SDS011;59925;52.136;5.420;2022-08-19T00:21:41;4.80;;;3.60;;
72060;SDS011;59925;52.136;5.420;2022-08-19T00:24:09;6.63;;;3.30;;
72060;SDS011;59925;52.136;5.420;2022-08-19T00:26:37;7.97;;;4.07;;
72060;SDS011;59925;52.136;5.420;2022-08-19T00:29:04;5.43;;;2.92;;
72060;SDS011;59925;52.136;5.420;2022-08-19T00:31:33;5.45;;;2.90;;
72060;SDS011;59925;52.136;5.420;2022-08-19T00:34:00;4.40;;;3.60;;
72060;SDS011;59925;52.136;5.420;2022-08-19T00:36:26;4.93;;;3.42;;
72060;SDS011;59925;52.136;5.420;2022-08-19T00:38:54;5.70;;;3.03;;
72060;SDS011;59925;52.136;5.420;2022-08-19T00:41:21;4.20;;;3.33;;
72060;SDS011;59925;52.136;5.420;2022-08-19T00:44:11;6.82;;;3.25;;
72060;SDS011;59925;52.136;5.420;2022-08-19T00:46:39;4.40;;;2.97;;
72060;SDS011;59925;52.136;5.420;2022-08-19T00:51:47;4.93;;;3.27;;
72060;SDS011;59925;52.136;5.420;2022-08-19T00:54:16;3.65;;;2.92;;
72060;SDS011;59925;52.136;5.420;2022-08-19T00:56:53;4.45;;;3.17;;
72060;SDS011;59925;52.136;5.420;2022-08-19T00:59:21;3.20;;;2.67;;
72060;SDS011;59925;52.136;5.420;2022-08-19T01:02:08;5.38;;;2.47;;
72060;SDS011;59925;52.136;5.420;2022-08-19T01:04:35;3.83;;;2.10;;
72060;SDS011;59925;52.136;5.420;2022-08-19T01:07:01;3.25;;;2.40;;
72060;SDS011;59925;52.136;5.420;2022-08-19T01:09:28;3.58;;;2.30;;
72060;SDS011;59925;52.136;5.420;2022-08-19T01:11:56;2.95;;;1.98;;
72060;SDS011;59925;52.136;5.420;2022-08-19T01:14:23;4.93;;;2.20;;
72060;SDS011;59925;52.136;5.420;2022-08-19T01:16:50;3.13;;;2.60;;
72060;SDS011;59925;52.136;5.420;2022-08-19T01:21:55;3.40;;;2.83;;
72060;SDS011;59925;52.136;5.420;2022-08-19T01:24:39;4.18;;;2.78;;
72060;SDS011;59925;52.136;5.420;2022-08-19T01:27:15;4.03;;;3.20;;
72060;SDS011;59925;52.136;5.420;2022-08-19T01:29:42;4.70;;;2.80;;
72060;SDS011;59925;52.136;5.420;2022-08-19T01:32:12;3.47;;;2.63;;
72060;SDS011;59925;52.136;5.420;2022-08-19T01:34:59;4.85;;;2.72;;
72060;SDS011;59925;52.136;5.420;2022-08-19T01:37:28;3.58;;;2.35;;
72060;SDS011;59925;52.136;5.420;2022-08-19T01:39:56;3.60;;;2.83;;
72060;SDS011;59925;52.136;5.420;2022-08-19T01:42:22;7.10;;;3.80;;
72060;SDS011;59925;52.136;5.420;2022-08-19T01:44:55;5.72;;;3.08;;
72060;SDS011;59925;52.136;5.420;2022-08-19T01:47:22;3.30;;;2.40;;
72060;SDS011;59925;52.136;5.420;2022-08-19T01:49:49;4.35;;;2.60;;
72060;SDS011;59925;52.136;5.420;2022-08-19T01:52:15;3.45;;;2.20;;
72060;SDS011;59925;52.136;5.420;2022-08-19T01:54:41;3.83;;;2.37;;
72060;SDS011;59925;52.136;5.420;2022-08-19T01:57:08;4.22;;;2.42;;
72060;SDS011;59925;52.136;5.420;2022-08-19T01:59:38;3.85;;;3.10;;
72060;SDS011;59925;52.136;5.420;2022-08-19T02:02:06;4.88;;;2.97;;
72060;SDS011;59925;52.136;5.420;2022-08-19T02:04:34;4.68;;;3.03;;
72060;SDS011;59925;52.136;5.420;2022-08-19T02:07:03;7.30;;;3.57;;
72060;SDS011;59925;52.136;5.420;2022-08-19T02:09:31;4.43;;;2.97;;
72060;SDS011;59925;52.136;5.420;2022-08-19T02:11:58;3.38;;;2.88;;
72060;SDS011;59925;52.136;5.420;2022-08-19T02:14:24;7.38;;;3.20;;
72060;SDS011;59925;52.136;5.420;2022-08-19T02:16:51;4.22;;;3.00;;
72060;SDS011;59925;52.136;5.420;2022-08-19T02:19:17;6.77;;;3.40;;
72060;SDS011;59925;52.136;5.420;2022-08-19T02:21:44;4.10;;;2.85;;
72060;SDS011;59925;52.136;5.420;2022-08-19T02:24:10;4.18;;;2.90;;
72060;SDS011;59925;52.136;5.420;2022-08-19T02:26:38;4.28;;;3.03;;
72060;SDS011;59925;52.136;5.420;2022-08-19T02:29:04;4.97;;;3.45;;
72060;SDS011;59925;52.136;5.420;2022-08-19T02:31:31;4.37;;;2.87;;
72060;SDS011;59925;52.136;5.420;2022-08-19T02:33:58;3.92;;;3.25;;
72060;SDS011;59925;52.136;5.420;2022-08-19T02:36:24;5.28;;;2.97;;
72060;SDS011;59925;52.136;5.420;2022-08-19T02:38:51;5.18;;;3.20;;
72060;SDS011;59925;52.136;5.420;2022-08-19T02:41:22;5.30;;;3.35;;
72060;SDS011;59925;52.136;5.420;2022-08-19T02:43:52;6.13;;;3.17;;
72060;SDS011;59925;52.136;5.420;2022-08-19T02:46:45;6.43;;;3.20;;
72060;SDS011;59925;52.136;5.420;2022-08-19T02:49:13;6.60;;;3.58;;
72060;SDS011;59925;52.136;5.420;2022-08-19T02:51:43;8.13;;;4.40;;
72060;SDS011;59925;52.136;5.420;2022-08-19T02:54:11;7.05;;;3.70;;
72060;SDS011;59925;52.136;5.420;2022-08-19T02:56:39;5.90;;;3.87;;
72060;SDS011;59925;52.136;5.420;2022-08-19T02:59:07;8.20;;;5.07;;
72060;SDS011;59925;52.136;5.420;2022-08-19T03:01:37;7.05;;;4.45;;
72060;SDS011;59925;52.136;5.420;2022-08-19T03:04:06;9.38;;;5.30;;
72060;SDS011;59925;52.136;5.420;2022-08-19T03:06:35;7.28;;;4.85;;
72060;SDS011;59925;52.136;5.420;2022-08-19T03:09:03;6.27;;;4.37;;
72060;SDS011;59925;52.136;5.420;2022-08-19T03:11:30;7.03;;;4.68;;
72060;SDS011;59925;52.136;5.420;2022-08-19T03:13:58;6.70;;;3.90;;
72060;SDS011;59925;52.136;5.420;2022-08-19T03:16:27;5.10;;;3.60;;
72060;SDS011;59925;52.136;5.420;2022-08-19T03:18:58;5.50;;;4.15;;
72060;SDS011;59925;52.136;5.420;2022-08-19T03:21:26;5.03;;;3.70;;
72060;SDS011;59925;52.136;5.420;2022-08-19T03:23:58;4.60;;;3.50;;
72060;SDS011;59925;52.136;5.420;2022-08-19T03:26:27;6.28;;;4.20;;
72060;SDS011;59925;52.136;5.420;2022-08-19T03:28:54;7.55;;;3.80;;
72060;SDS011;59925;52.136;5.420;2022-08-19T03:31:24;9.32;;;4.00;;
72060;SDS011;59925;52.136;5.420;2022-08-19T03:34:19;5.30;;;3.83;;
72060;SDS011;59925;52.136;5.420;2022-08-19T03:36:54;8.63;;;3.75;;
72060;SDS011;59925;52.136;5.420;2022-08-19T03:39:23;6.82;;;4.40;;
72060;SDS011;59925;52.136;5.420;2022-08-19T03:41:51;5.88;;;3.83;;
72060;SDS011;59925;52.136;5.420;2022-08-19T03:44:38;7.57;;;4.30;;
72060;SDS011;59925;52.136;5.420;2022-08-19T03:47:05;7.57;;;3.63;;
72060;SDS011;59925;52.136;5.420;2022-08-19T03:49:32;6.18;;;3.83;;
72060;SDS011;59925;52.136;5.420;2022-08-19T03:52:02;5.28;;;3.75;;
72060;SDS011;59925;52.136;5.420;2022-08-19T03:54:31;6.53;;;3.92;;
72060;SDS011;59925;52.136;5.420;2022-08-19T03:56:57;7.43;;;4.00;;
72060;SDS011;59925;52.136;5.420;2022-08-19T03:59:29;11.40;;;4.17;;
72060;SDS011;59925;52.136;5.420;2022-08-19T04:01:59;10.57;;;4.88;;
72060;SDS011;59925;52.136;5.420;2022-08-19T04:04:27;6.03;;;4.70;;
72060;SDS011;59925;52.136;5.420;2022-08-19T04:06:56;8.27;;;5.00;;
72060;SDS011;59925;52.136;5.420;2022-08-19T04:09:22;8.68;;;5.03;;
72060;SDS011;59925;52.136;5.420;2022-08-19T04:11:50;8.37;;;4.70;;
72060;SDS011;59925;52.136;5.420;2022-08-19T04:14:21;8.27;;;5.00;;
72060;SDS011;59925;52.136;5.420;2022-08-19T04:16:58;11.65;;;5.45;;
72060;SDS011;59925;52.136;5.420;2022-08-19T04:19:28;12.10;;;5.03;;
72060;SDS011;59925;52.136;5.420;2022-08-19T04:21:56;6.63;;;4.28;;
72060;SDS011;59925;52.136;5.420;2022-08-19T04:24:22;7.20;;;4.53;;
72060;SDS011;59925;52.136;5.420;2022-08-19T04:26:49;8.05;;;4.50;;
72060;SDS011;59925;52.136;5.420;2022-08-19T04:29:17;6.78;;;4.53;;
72060;SDS011;59925;52.136;5.420;2022-08-19T04:31:47;8.43;;;4.70;;
72060;SDS011;59925;52.136;5.420;2022-08-19T04:34:15;10.10;;;5.00;;
72060;SDS011;59925;52.136;5.420;2022-08-19T04:36:44;9.37;;;5.60;;
72060;SDS011;59925;52.136;5.420;2022-08-19T04:39:14;7.18;;;4.25;;
72060;SDS011;59925;52.136;5.420;2022-08-19T04:41:42;8.95;;;4.13;;
72060;SDS011;59925;52.136;5.420;2022-08-19T04:44:29;10.52;;;4.80;;
72060;SDS011;59925;52.136;5.420;2022-08-19T04:47:00;9.65;;;4.80;;
72060;SDS011;59925;52.136;5.420;2022-08-19T04:49:36;13.33;;;5.03;;
72060;SDS011;59925;52.136;5.420;2022-08-19T04:52:03;15.27;;;6.00;;
72060;SDS011;59925;52.136;5.420;2022-08-19T04:54:29;10.05;;;4.97;;
72060;SDS011;59925;52.136;5.420;2022-08-19T04:57:04;8.35;;;5.05;;
72060;SDS011;59925;52.136;5.420;2022-08-19T04:59:33;10.77;;;4.95;;
72060;SDS011;59925;52.136;5.420;2022-08-19T05:02:00;13.90;;;5.73;;
72060;SDS011;59925;52.136;5.420;2022-08-19T05:04:26;9.70;;;5.53;;
72060;SDS011;59925;52.136;5.420;2022-08-19T05:06:57;7.13;;;4.60;;
72060;SDS011;59925;52.136;5.420;2022-08-19T05:09:26;8.15;;;4.60;;
72060;SDS011;59925;52.136;5.420;2022-08-19T05:12:13;10.38;;;4.65;;
72060;SDS011;59925;52.136;5.420;2022-08-19T05:14:40;7.03;;;4.30;;
72060;SDS011;59925;52.136;5.420;2022-08-19T05:17:06;8.65;;;4.43;;
72060;SDS011;59925;52.136;5.420;2022-08-19T05:19:52;7.72;;;4.63;;
72060;SDS011;59925;52.136;5.420;2022-08-19T05:22:37;9.70;;;5.75;;
72060;SDS011;59925;52.136;5.420;2022-08-19T05:25:08;7.57;;;4.72;;
72060;SDS011;59925;52.136;5.420;2022-08-19T05:27:39;7.00;;;4.83;;
72060;SDS011;59925;52.136;5.420;2022-08-19T05:30:07;8.27;;;5.07;;
72060;SDS011;59925;52.136;5.420;2022-08-19T05:32:34;7.90;;;5.03;;
72060;SDS011;59925;52.136;5.420;2022-08-19T05:35:01;8.18;;;4.85;;
72060;SDS011;59925;52.136;5.420;2022-08-19T05:37:28;8.68;;;5.30;;
72060;SDS011;59925;52.136;5.420;2022-08-19T05:39:54;7.63;;;5.67;;
72060;SDS011;59925;52.136;5.420;2022-08-19T05:42:21;10.18;;;6.15;;
72060;SDS011;59925;52.136;5.420;2022-08-19T05:44:49;9.23;;;5.25;;
72060;SDS011;59925;52.136;5.420;2022-08-19T05:47:16;9.27;;;5.63;;
72060;SDS011;59925;52.136;5.420;2022-08-19T05:49:45;8.00;;;5.43;;
72060;SDS011;59925;52.136;5.420;2022-08-19T05:52:13;12.00;;;6.90;;
72060;SDS011;59925;52.136;5.420;2022-08-19T05:54:44;14.43;;;8.60;;
72060;SDS011;59925;52.136;5.420;2022-08-19T05:57:16;13.25;;;8.57;;
72060;SDS011;59925;52.136;5.420;2022-08-19T05:59:44;19.00;;;11.02;;
72060;SDS011;59925;52.136;5.420;2022-08-19T06:02:12;20.85;;;11.95;;
72060;SDS011;59925;52.136;5.420;2022-08-19T06:04:40;20.53;;;12.13;;
72060;SDS011;59925;52.136;5.420;2022-08-19T06:07:09;21.95;;;12.00;;
72060;SDS011;59925;52.136;5.420;2022-08-19T06:09:38;22.33;;;13.05;;
72060;SDS011;59925;52.136;5.420;2022-08-19T06:12:05;25.58;;;12.90;;
72060;SDS011;59925;52.136;5.420;2022-08-19T06:14:33;20.48;;;12.25;;
72060;SDS011;59925;52.136;5.420;2022-08-19T06:17:07;20.57;;;11.27;;
72060;SDS011;59925;52.136;5.420;2022-08-19T06:19:34;18.73;;;12.50;;
72060;SDS011;59925;52.136;5.420;2022-08-19T06:22:06;26.95;;;15.30;;
72060;SDS011;59925;52.136;5.420;2022-08-19T06:24:33;27.90;;;15.05;;
72060;SDS011;59925;52.136;5.420;2022-08-19T06:27:00;26.75;;;16.05;;
72060;SDS011;59925;52.136;5.420;2022-08-19T06:29:27;28.43;;;15.83;;
72060;SDS011;59925;52.136;5.420;2022-08-19T06:31:56;29.55;;;16.98;;
72060;SDS011;59925;52.136;5.420;2022-08-19T06:34:25;31.77;;;17.67;;
72060;SDS011;59925;52.136;5.420;2022-08-19T06:36:54;32.28;;;17.77;;
72060;SDS011;59925;52.136;5.420;2022-08-19T06:39:23;31.05;;;18.60;;
72060;SDS011;59925;52.136;5.420;2022-08-19T06:41:53;32.20;;;18.50;;
72060;SDS011;59925;52.136;5.420;2022-08-19T06:44:24;35.83;;;19.10;;
72060;SDS011;59925;52.136;5.420;2022-08-19T06:46:53;36.25;;;18.83;;
72060;SDS011;59925;52.136;5.420;2022-08-19T06:49:21;33.47;;;18.50;;
72060;SDS011;59925;52.136;5.420;2022-08-19T06:51:48;33.25;;;19.17;;
72060;SDS011;59925;52.136;5.420;2022-08-19T06:54:17;33.43;;;18.80;;
72060;SDS011;59925;52.136;5.420;2022-08-19T06:56:45;35.53;;;20.00;;
72060;SDS011;59925;52.136;5.420;2022-08-19T06:59:14;37.15;;;19.50;;
72060;SDS011;59925;52.136;5.420;2022-08-19T07:01:44;44.22;;;21.80;;
72060;SDS011;59925;52.136;5.420;2022-08-19T07:04:13;45.60;;;21.08;;
72060;SDS011;59925;52.136;5.420;2022-08-19T07:06:42;41.10;;;21.03;;
72060;SDS011;59925;52.136;5.420;2022-08-19T07:09:11;44.75;;;20.00;;
72060;SDS011;59925;52.136;5.420;2022-08-19T07:11:48;51.00;;;21.58;;
72060;SDS011;59925;52.136;5.420;2022-08-19T07:14:17;50.55;;;21.77;;
72060;SDS011;59925;52.136;5.420;2022-08-19T07:16:46;48.45;;;22.17;;
72060;SDS011;59925;52.136;5.420;2022-08-19T07:19:15;48.87;;;21.43;;
72060;SDS011;59925;52.136;5.420;2022-08-19T07:21:44;50.45;;;22.85;;
72060;SDS011;59925;52.136;5.420;2022-08-19T07:24:12;52.80;;;24.10;;
72060;SDS011;59925;52.136;5.420;2022-08-19T07:26:39;50.30;;;25.52;;
72060;SDS011;59925;52.136;5.420;2022-08-19T07:29:08;46.47;;;23.17;;
72060;SDS011;59925;52.136;5.420;2022-08-19T07:31:35;53.47;;;26.07;;
72060;SDS011;59925;52.136;5.420;2022-08-19T07:34:03;48.58;;;25.65;;
72060;SDS011;59925;52.136;5.420;2022-08-19T07:36:36;51.22;;;24.98;;
72060;SDS011;59925;52.136;5.420;2022-08-19T07:39:06;49.42;;;25.30;;
72060;SDS011;59925;52.136;5.420;2022-08-19T07:41:38;47.55;;;24.48;;
72060;SDS011;59925;52.136;5.420;2022-08-19T07:44:05;48.87;;;25.17;;
72060;SDS011;59925;52.136;5.420;2022-08-19T07:46:34;51.20;;;25.80;;
72060;SDS011;59925;52.136;5.420;2022-08-19T07:49:04;49.15;;;25.95;;
72060;SDS011;59925;52.136;5.420;2022-08-19T07:51:32;51.42;;;26.65;;
72060;SDS011;59925;52.136;5.420;2022-08-19T07:54:02;45.58;;;23.88;;
72060;SDS011;59925;52.136;5.420;2022-08-19T07:56:29;49.30;;;24.70;;
72060;SDS011;59925;52.136;5.420;2022-08-19T07:58:55;46.70;;;25.85;;
72060;SDS011;59925;52.136;5.420;2022-08-19T08:01:27;46.75;;;25.17;;
72060;SDS011;59925;52.136;5.420;2022-08-19T08:03:55;43.90;;;23.63;;
72060;SDS011;59925;52.136;5.420;2022-08-19T08:06:41;41.47;;;23.10;;
72060;SDS011;59925;52.136;5.420;2022-08-19T08:09:28;38.17;;;23.00;;
72060;SDS011;59925;52.136;5.420;2022-08-19T08:12:03;40.85;;;24.20;;
72060;SDS011;59925;52.136;5.420;2022-08-19T08:14:52;40.88;;;22.35;;
72060;SDS011;59925;52.136;5.420;2022-08-19T08:17:22;34.90;;;21.30;;
72060;SDS011;59925;52.136;5.420;2022-08-19T08:20:10;36.33;;;21.27;;
72060;SDS011;59925;52.136;5.420;2022-08-19T08:22:37;38.33;;;21.37;;
72060;SDS011;59925;52.136;5.420;2022-08-19T08:25:26;38.60;;;21.83;;
72060;SDS011;59925;52.136;5.420;2022-08-19T08:27:57;38.00;;;21.17;;
72060;SDS011;59925;52.136;5.420;2022-08-19T08:30:26;37.05;;;20.85;;
72060;SDS011;59925;52.136;5.420;2022-08-19T08:32:58;37.03;;;19.20;;
72060;SDS011;59925;52.136;5.420;2022-08-19T08:35:25;31.50;;;18.50;;
72060;SDS011;59925;52.136;5.420;2022-08-19T08:37:52;32.10;;;18.10;;
72060;SDS011;59925;52.136;5.420;2022-08-19T08:40:22;34.53;;;18.05;;
72060;SDS011;59925;52.136;5.420;2022-08-19T08:42:58;29.45;;;18.35;;
72060;SDS011;59925;52.136;5.420;2022-08-19T08:45:52;32.05;;;17.23;;
72060;SDS011;59925;52.136;5.420;2022-08-19T08:51:25;28.15;;;17.33;;
72060;SDS011;59925;52.136;5.420;2022-08-19T08:54:00;30.15;;;17.83;;
72060;SDS011;59925;52.136;5.420;2022-08-19T08:56:30;28.48;;;17.33;;
72060;SDS011;59925;52.136;5.420;2022-08-19T08:59:03;24.40;;;16.23;;
72060;SDS011;59925;52.136;5.420;2022-08-19T09:01:34;25.63;;;14.70;;
72060;SDS011;59925;52.136;5.420;2022-08-19T09:04:03;26.27;;;14.75;;
72060;SDS011;59925;52.136;5.420;2022-08-19T09:14:45;24.20;;;14.03;;
72060;SDS011;59925;52.136;5.420;2022-08-19T09:17:21;22.05;;;14.10;;
72060;SDS011;59925;52.136;5.420;2022-08-19T09:19:57;21.42;;;14.45;;
72060;SDS011;59925;52.136;5.420;2022-08-19T09:22:38;25.60;;;14.77;;
72060;SDS011;59925;52.136;5.420;2022-08-19T09:25:07;21.92;;;14.50;;
72060;SDS011;59925;52.136;5.420;2022-08-19T09:27:37;21.20;;;12.67;;
72060;SDS011;59925;52.136;5.420;2022-08-19T09:30:23;24.00;;;14.80;;
72060;SDS011;59925;52.136;5.420;2022-08-19T09:32:52;23.38;;;13.20;;
72060;SDS011;59925;52.136;5.420;2022-08-19T09:35:21;19.63;;;13.65;;
72060;SDS011;59925;52.136;5.420;2022-08-19T09:37:49;23.73;;;13.07;;
72060;SDS011;59925;52.136;5.420;2022-08-19T09:40:23;19.57;;;13.47;;
72060;SDS011;59925;52.136;5.420;2022-08-19T09:42:51;21.13;;;13.40;;
72060;SDS011;59925;52.136;5.420;2022-08-19T09:45:19;20.55;;;12.77;;
72060;SDS011;59925;52.136;5.420;2022-08-19T09:47:48;21.15;;;12.52;;
72060;SDS011;59925;52.136;5.420;2022-08-19T09:50:19;16.98;;;12.05;;
72060;SDS011;59925;52.136;5.420;2022-08-19T09:52:46;20.10;;;10.90;;
72060;SDS011;59925;52.136;5.420;2022-08-19T09:55:20;16.80;;;11.48;;
72060;SDS011;59925;52.136;5.420;2022-08-19T09:57:49;17.52;;;10.82;;
72060;SDS011;59925;52.136;5.420;2022-08-19T10:00:15;16.42;;;11.57;;
72060;SDS011;59925;52.136;5.420;2022-08-19T10:02:42;17.10;;;10.45;;
72060;SDS011;59925;52.136;5.420;2022-08-19T10:05:10;18.33;;;11.50;;
72060;SDS011;59925;52.136;5.420;2022-08-19T10:07:56;16.75;;;10.27;;
72060;SDS011;59925;52.136;5.420;2022-08-19T10:10:22;14.82;;;9.73;;
72060;SDS011;59925;52.136;5.420;2022-08-19T10:12:50;16.83;;;10.35;;
72060;SDS011;59925;52.136;5.420;2022-08-19T10:15:16;15.63;;;10.23;;
72060;SDS011;59925;52.136;5.420;2022-08-19T10:17:54;17.30;;;11.57;;
72060;SDS011;59925;52.136;5.420;2022-08-19T10:20:21;13.55;;;10.23;;
72060;SDS011;59925;52.136;5.420;2022-08-19T10:22:49;15.60;;;12.23;;
72060;SDS011;59925;52.136;5.420;2022-08-19T10:25:17;15.93;;;11.57;;
72060;SDS011;59925;52.136;5.420;2022-08-19T10:27:43;18.25;;;11.63;;
72060;SDS011;59925;52.136;5.420;2022-08-19T10:30:16;15.47;;;12.53;;
72060;SDS011;59925;52.136;5.420;2022-08-19T10:32:43;15.30;;;11.40;;
72060;SDS011;59925;52.136;5.420;2022-08-19T10:35:12;18.80;;;12.88;;
72060;SDS011;59925;52.136;5.420;2022-08-19T10:37:46;18.83;;;12.63;;
72060;SDS011;59925;52.136;5.420;2022-08-19T10:40:27;18.45;;;14.27;;
72060;SDS011;59925;52.136;5.420;2022-08-19T10:42:54;20.87;;;12.73;;
72060;SDS011;59925;52.136;5.420;2022-08-19T10:45:24;21.55;;;13.10;;
72060;SDS011;59925;52.136;5.420;2022-08-19T10:47:54;17.80;;;13.50;;
72060;SDS011;59925;52.136;5.420;2022-08-19T10:50:21;17.88;;;13.13;;
72060;SDS011;59925;52.136;5.420;2022-08-19T10:53:07;17.90;;;12.77;;
72060;SDS011;59925;52.136;5.420;2022-08-19T10:55:37;19.17;;;13.47;;
72060;SDS011;59925;52.136;5.420;2022-08-19T10:58:22;19.80;;;14.13;;
72060;SDS011;59925;52.136;5.420;2022-08-19T11:00:53;17.75;;;13.18;;
72060;SDS011;59925;52.136;5.420;2022-08-19T11:03:21;17.27;;;13.77;;
72060;SDS011;59925;52.136;5.420;2022-08-19T11:05:58;18.73;;;14.10;;
72060;SDS011;59925;52.136;5.420;2022-08-19T11:08:25;22.13;;;13.77;;
72060;SDS011;59925;52.136;5.420;2022-08-19T11:10:53;18.67;;;14.30;;
72060;SDS011;59925;52.136;5.420;2022-08-19T11:13:23;20.15;;;14.63;;
72060;SDS011;59925;52.136;5.420;2022-08-19T11:15:57;19.92;;;15.27;;
72060;SDS011;59925;52.136;5.420;2022-08-19T11:18:33;20.67;;;15.40;;
72060;SDS011;59925;52.136;5.420;2022-08-19T11:21:09;19.60;;;15.60;;
72060;SDS011;59925;52.136;5.420;2022-08-19T11:23:43;23.20;;;16.92;;
72060;SDS011;59925;52.136;5.420;2022-08-19T11:26:10;23.67;;;16.67;;
72060;SDS011;59925;52.136;5.420;2022-08-19T11:28:36;22.52;;;16.10;;
72060;SDS011;59925;52.136;5.420;2022-08-19T11:31:03;20.63;;;15.50;;
72060;SDS011;59925;52.136;5.420;2022-08-19T11:33:30;24.93;;;16.87;;
72060;SDS011;59925;52.136;5.420;2022-08-19T11:35:57;20.60;;;15.05;;
72060;SDS011;59925;52.136;5.420;2022-08-19T11:38:25;18.95;;;15.45;;
72060;SDS011;59925;52.136;5.420;2022-08-19T11:40:59;20.42;;;16.00;;
72060;SDS011;59925;52.136;5.420;2022-08-19T11:43:27;20.80;;;14.93;;
72060;SDS011;59925;52.136;5.420;2022-08-19T11:45:57;17.13;;;13.83;;
72060;SDS011;59925;52.136;5.420;2022-08-19T11:48:24;22.75;;;16.63;;
72060;SDS011;59925;52.136;5.420;2022-08-19T11:50:51;21.15;;;16.42;;
72060;SDS011;59925;52.136;5.420;2022-08-19T11:53:20;22.95;;;17.50;;
72060;SDS011;59925;52.136;5.420;2022-08-19T11:55:47;31.73;;;17.30;;
72060;SDS011;59925;52.136;5.420;2022-08-19T11:58:14;21.73;;;15.67;;
72060;SDS011;59925;52.136;5.420;2022-08-19T12:00:44;22.83;;;14.30;;
72060;SDS011;59925;52.136;5.420;2022-08-19T12:03:11;17.83;;;14.45;;
72060;SDS011;59925;52.136;5.420;2022-08-19T12:05:40;22.70;;;15.82;;
72060;SDS011;59925;52.136;5.420;2022-08-19T12:08:07;22.17;;;14.82;;
72060;SDS011;59925;52.136;5.420;2022-08-19T12:10:35;24.17;;;14.77;;
72060;SDS011;59925;52.136;5.420;2022-08-19T12:13:01;25.83;;;15.35;;
72060;SDS011;59925;52.136;5.420;2022-08-19T12:15:28;18.85;;;13.90;;
72060;SDS011;59925;52.136;5.420;2022-08-19T12:18:02;25.23;;;17.00;;
72060;SDS011;59925;52.136;5.420;2022-08-19T12:20:30;27.85;;;16.60;;
72060;SDS011;59925;52.136;5.420;2022-08-19T12:23:00;22.47;;;15.67;;
72060;SDS011;59925;52.136;5.420;2022-08-19T12:25:27;22.15;;;15.73;;
72060;SDS011;59925;52.136;5.420;2022-08-19T12:27:53;24.30;;;16.92;;
72060;SDS011;59925;52.136;5.420;2022-08-19T12:30:22;21.55;;;16.42;;
72060;SDS011;59925;52.136;5.420;2022-08-19T12:32:49;26.48;;;16.88;;
72060;SDS011;59925;52.136;5.420;2022-08-19T12:35:17;22.73;;;16.77;;
72060;SDS011;59925;52.136;5.420;2022-08-19T12:37:48;22.77;;;17.58;;
72060;SDS011;59925;52.136;5.420;2022-08-19T12:40:22;23.60;;;17.02;;
72060;SDS011;59925;52.136;5.420;2022-08-19T12:42:51;20.50;;;15.88;;
72060;SDS011;59925;52.136;5.420;2022-08-19T12:45:18;22.13;;;15.68;;
72060;SDS011;59925;52.136;5.420;2022-08-19T12:47:46;20.03;;;15.43;;
72060;SDS011;59925;52.136;5.420;2022-08-19T12:50:12;21.67;;;16.10;;
72060;SDS011;59925;52.136;5.420;2022-08-19T12:52:39;16.38;;;13.25;;
72060;SDS011;59925;52.136;5.420;2022-08-19T12:55:08;13.52;;;11.90;;
72060;SDS011;59925;52.136;5.420;2022-08-19T12:57:36;14.93;;;11.65;;
72060;SDS011;59925;52.136;5.420;2022-08-19T13:00:10;18.23;;;12.27;;
72060;SDS011;59925;52.136;5.420;2022-08-19T13:02:41;16.67;;;13.98;;
72060;SDS011;59925;52.136;5.420;2022-08-19T13:05:11;20.55;;;13.75;;
72060;SDS011;59925;52.136;5.420;2022-08-19T13:07:40;12.88;;;11.52;;
72060;SDS011;59925;52.136;5.420;2022-08-19T13:10:07;14.75;;;11.38;;
72060;SDS011;59925;52.136;5.420;2022-08-19T13:12:35;14.80;;;12.47;;
72060;SDS011;59925;52.136;5.420;2022-08-19T13:15:02;16.45;;;11.70;;
72060;SDS011;59925;52.136;5.420;2022-08-19T13:17:36;14.68;;;12.07;;
72060;SDS011;59925;52.136;5.420;2022-08-19T13:20:03;14.55;;;11.80;;
72060;SDS011;59925;52.136;5.420;2022-08-19T13:22:31;14.02;;;11.23;;
72060;SDS011;59925;52.136;5.420;2022-08-19T13:24:57;16.17;;;11.83;;
72060;SDS011;59925;52.136;5.420;2022-08-19T13:27:24;16.88;;;14.00;;
72060;SDS011;59925;52.136;5.420;2022-08-19T13:29:50;16.90;;;12.90;;
72060;SDS011;59925;52.136;5.420;2022-08-19T13:32:35;20.23;;;13.80;;
72060;SDS011;59925;52.136;5.420;2022-08-19T13:35:20;18.17;;;14.02;;
72060;SDS011;59925;52.136;5.420;2022-08-19T13:37:47;20.67;;;15.33;;
72060;SDS011;59925;52.136;5.420;2022-08-19T13:42:45;22.50;;;16.67;;
72060;SDS011;59925;52.136;5.420;2022-08-19T13:45:13;21.35;;;16.38;;
72060;SDS011;59925;52.136;5.420;2022-08-19T13:47:42;19.27;;;15.45;;
72060;SDS011;59925;52.136;5.420;2022-08-19T13:50:13;20.27;;;14.83;;
72060;SDS011;59925;52.136;5.420;2022-08-19T13:52:42;18.00;;;14.85;;
72060;SDS011;59925;52.136;5.420;2022-08-19T13:55:09;19.33;;;14.30;;
72060;SDS011;59925;52.136;5.420;2022-08-19T13:57:37;19.50;;;14.05;;
72060;SDS011;59925;52.136;5.420;2022-08-19T14:00:10;17.95;;;14.77;;
72060;SDS011;59925;52.136;5.420;2022-08-19T14:02:41;17.60;;;14.53;;
72060;SDS011;59925;52.136;5.420;2022-08-19T14:05:09;19.17;;;14.45;;
72060;SDS011;59925;52.136;5.420;2022-08-19T14:07:37;16.35;;;13.65;;
72060;SDS011;59925;52.136;5.420;2022-08-19T14:10:04;16.00;;;14.20;;
72060;SDS011;59925;52.136;5.420;2022-08-19T14:12:32;16.58;;;13.05;;
72060;SDS011;59925;52.136;5.420;2022-08-19T14:15:00;15.03;;;11.93;;
72060;SDS011;59925;52.136;5.420;2022-08-19T14:17:26;14.73;;;12.15;;
72060;SDS011;59925;52.136;5.420;2022-08-19T14:19:58;15.13;;;12.07;;
72060;SDS011;59925;52.136;5.420;2022-08-19T14:22:37;17.90;;;13.18;;
72060;SDS011;59925;52.136;5.420;2022-08-19T14:25:05;17.98;;;13.63;;
72060;SDS011;59925;52.136;5.420;2022-08-19T14:27:37;15.23;;;12.63;;
72060;SDS011;59925;52.136;5.420;2022-08-19T14:30:05;18.02;;;13.10;;
72060;SDS011;59925;52.136;5.420;2022-08-19T14:32:33;16.48;;;11.88;;
72060;SDS011;59925;52.136;5.420;2022-08-19T14:35:00;16.27;;;11.35;;
72060;SDS011;59925;52.136;5.420;2022-08-19T14:37:27;20.30;;;12.07;;
72060;SDS011;59925;52.136;5.420;2022-08-19T14:39:54;17.17;;;12.33;;
72060;SDS011;59925;52.136;5.420;2022-08-19T14:42:20;15.52;;;11.27;;
72060;SDS011;59925;52.136;5.420;2022-08-19T14:44:46;14.45;;;10.13;;
72060;SDS011;59925;52.136;5.420;2022-08-19T14:47:13;15.07;;;9.70;;
72060;SDS011;59925;52.136;5.420;2022-08-19T14:49:40;12.32;;;9.63;;
72060;SDS011;59925;52.136;5.420;2022-08-19T14:52:13;12.40;;;9.67;;
72060;SDS011;59925;52.136;5.420;2022-08-19T14:54:39;12.32;;;9.52;;
72060;SDS011;59925;52.136;5.420;2022-08-19T14:57:06;10.60;;;8.68;;
72060;SDS011;59925;52.136;5.420;2022-08-19T14:59:33;11.05;;;8.10;;
72060;SDS011;59925;52.136;5.420;2022-08-19T15:02:00;10.65;;;8.68;;
72060;SDS011;59925;52.136;5.420;2022-08-19T15:04:47;11.47;;;7.50;;
72060;SDS011;59925;52.136;5.420;2022-08-19T15:07:23;8.85;;;7.47;;